Time;durP1;ratioP1;P1;durP2;ratioP2;P2;SDS_P1;SDS_P2;PMS_P1;PMS_P2;Temp;Humidity;BMP_temperature;BMP_pressure;BME280_temperature;BME280_humidity;BME280_pressure;Samples;Min_cycle;Max_cycle;Signal;HPM_P1;HPM_P2
2021/07/10 00:02:09;;;;;;;11.15;6.18;;;;;;;;;;4363237;32;20117;-70
2021/07/10 00:04:34;;;;;;;12.88;7.18;;;;;;;;;;4337473;32;20126;-71
2021/07/10 00:07:00;;;;;;;9.75;6.78;;;;;;;;;;4349838;32;20492;-71
2021/07/10 00:09:27;;;;;;;10.23;6.55;;;;;;;;;;4349507;32;20164;-72
2021/07/10 00:11:52;;;;;;;12.02;6.60;;;;;;;;;;4363181;32;20125;-71
2021/07/10 00:14:18;;;;;;;10.85;6.97;;;;;;;;;;4349364;32;20578;-71
2021/07/10 00:16:44;;;;;;;8.75;6.53;;;;;;;;;;4348715;32;20090;-71
2021/07/10 00:19:11;;;;;;;11.25;6.60;;;;;;;;;;4363005;32;20114;-71
2021/07/10 00:21:36;;;;;;;11.43;6.45;;;;;;;;;;4349773;32;20201;-71
2021/07/10 00:24:03;;;;;;;11.30;6.65;;;;;;;;;;4363089;32;20126;-71
2021/07/10 00:26:28;;;;;;;10.90;6.20;;;;;;;;;;4363371;32;20116;-72
2021/07/10 00:28:54;;;;;;;14.63;6.95;;;;;;;;;;4349688;32;20133;-72
2021/07/10 00:31:20;;;;;;;11.75;6.90;;;;;;;;;;4363085;32;20145;-71
2021/07/10 00:33:46;;;;;;;8.95;6.45;;;;;;;;;;4363161;32;20110;-71
2021/07/10 00:36:12;;;;;;;10.00;6.85;;;;;;;;;;4362953;32;20507;-71
2021/07/10 00:38:38;;;;;;;12.73;6.68;;;;;;;;;;4336985;32;20139;-71
2021/07/10 00:41:04;;;;;;;7.82;6.18;;;;;;;;;;4349171;32;20106;-71
2021/07/10 00:43:30;;;;;;;10.27;6.65;;;;;;;;;;4349354;32;20203;-71
2021/07/10 00:45:56;;;;;;;9.30;6.43;;;;;;;;;;4363201;32;20472;-70
2021/07/10 00:48:22;;;;;;;12.98;6.87;;;;;;;;;;4349170;32;20110;-71
2021/07/10 00:50:48;;;;;;;14.52;6.80;;;;;;;;;;4349094;32;20196;-72
2021/07/10 00:53:14;;;;;;;8.43;6.68;;;;;;;;;;4362837;32;20121;-71
2021/07/10 00:55:41;;;;;;;12.73;6.60;;;;;;;;;;4363004;32;20306;-71
2021/07/10 00:58:07;;;;;;;9.23;7.03;;;;;;;;;;4349038;32;20218;-72
2021/07/10 01:00:33;;;;;;;8.52;6.10;;;;;;;;;;4324533;32;20110;-71
2021/07/10 01:02:58;;;;;;;9.35;7.03;;;;;;;;;;4362837;32;20109;-71
2021/07/10 01:05:26;;;;;;;9.00;6.30;;;;;;;;;;4348973;32;20117;-71
2021/07/10 01:07:52;;;;;;;8.63;6.53;;;;;;;;;;4349118;32;20206;-71
2021/07/10 01:10:18;;;;;;;9.82;6.60;;;;;;;;;;4349184;32;20542;-72
2021/07/10 01:12:47;;;;;;;13.00;6.40;;;;;;;;;;4349143;32;20117;-72
2021/07/10 01:15:14;;;;;;;11.35;6.80;;;;;;;;;;4349093;32;20515;-71
2021/07/10 01:17:42;;;;;;;12.00;6.50;;;;;;;;;;4348930;32;20445;-71
2021/07/10 01:20:16;;;;;;;9.38;6.60;;;;;;;;;;4348744;32;20596;-71
2021/07/10 01:22:42;;;;;;;7.93;6.55;;;;;;;;;;4349084;32;20211;-71
2021/07/10 01:25:15;;;;;;;9.23;6.68;;;;;;;;;;4348758;32;20149;-71
2021/07/10 01:27:41;;;;;;;14.07;7.18;;;;;;;;;;4348644;32;20090;-71
2021/07/10 01:30:09;;;;;;;9.57;6.87;;;;;;;;;;4362756;32;20114;-71
2021/07/10 01:32:36;;;;;;;9.07;7.30;;;;;;;;;;4362457;32;20105;-72
2021/07/10 01:35:01;;;;;;;13.65;7.32;;;;;;;;;;4348723;32;20279;-71
2021/07/10 01:37:27;;;;;;;20.73;7.75;;;;;;;;;;4348917;32;20110;-72
2021/07/10 01:39:53;;;;;;;11.63;7.37;;;;;;;;;;4362334;32;20457;-72
2021/07/10 01:42:20;;;;;;;9.02;6.75;;;;;;;;;;4362497;32;20441;-71
2021/07/10 01:44:47;;;;;;;10.05;6.28;;;;;;;;;;4362538;32;20185;-71
2021/07/10 01:47:13;;;;;;;12.02;6.15;;;;;;;;;;4362221;32;20114;-71
2021/07/10 01:49:39;;;;;;;9.95;6.68;;;;;;;;;;4348661;32;20218;-72
2021/07/10 01:52:05;;;;;;;9.68;7.12;;;;;;;;;;4362297;32;20219;-72
2021/07/10 01:54:31;;;;;;;13.77;6.57;;;;;;;;;;4348784;32;20202;-71
2021/07/10 01:56:57;;;;;;;11.32;7.10;;;;;;;;;;4348598;32;20173;-71
2021/07/10 01:59:23;;;;;;;12.60;6.85;;;;;;;;;;4362099;32;20113;-71
2021/07/10 02:01:49;;;;;;;10.68;7.05;;;;;;;;;;4348469;32;20105;-71
2021/07/10 02:04:18;;;;;;;12.85;7.45;;;;;;;;;;4336324;32;20106;-72
2021/07/10 02:06:44;;;;;;;16.85;7.28;;;;;;;;;;4348797;32;20504;-72
2021/07/10 02:09:11;;;;;;;15.65;6.40;;;;;;;;;;4336172;32;20505;-72
2021/07/10 02:11:37;;;;;;;8.25;6.32;;;;;;;;;;4362308;32;20115;-72
2021/07/10 02:14:03;;;;;;;9.27;7.07;;;;;;;;;;4362175;32;20134;-72
2021/07/10 02:16:30;;;;;;;8.43;6.35;;;;;;;;;;4362314;32;20121;-72
2021/07/10 02:18:57;;;;;;;9.30;5.93;;;;;;;;;;4361958;32;20098;-71
2021/07/10 02:21:23;;;;;;;8.80;6.00;;;;;;;;;;4362150;32;20204;-71
2021/07/10 02:23:51;;;;;;;10.55;6.45;;;;;;;;;;4362142;32;20625;-71
2021/07/10 02:26:17;;;;;;;9.65;6.62;;;;;;;;;;4361978;32;20103;-71
2021/07/10 02:28:43;;;;;;;14.87;6.22;;;;;;;;;;4348512;32;20106;-71
2021/07/10 02:31:09;;;;;;;11.35;7.32;;;;;;;;;;4348213;32;20101;-72
2021/07/10 02:33:35;;;;;;;9.23;6.53;;;;;;;;;;4348073;32;20117;-71
2021/07/10 02:36:01;;;;;;;8.32;6.45;;;;;;;;;;4335800;32;20139;-71
2021/07/10 02:38:27;;;;;;;13.13;7.32;;;;;;;;;;4348445;32;20098;-72
2021/07/10 02:40:52;;;;;;;9.43;7.10;;;;;;;;;;4364440;32;20110;-71
2021/07/10 02:43:18;;;;;;;9.43;7.32;;;;;;;;;;4350299;32;20302;-71
2021/07/10 02:45:44;;;;;;;10.93;7.12;;;;;;;;;;4364117;32;20130;-71
2021/07/10 02:48:12;;;;;;;9.32;6.97;;;;;;;;;;4350182;32;20281;-70
2021/07/10 02:50:38;;;;;;;13.90;6.65;;;;;;;;;;4350716;32;20203;-71
2021/07/10 02:53:04;;;;;;;10.77;6.93;;;;;;;;;;4363996;32;20109;-71
2021/07/10 02:55:30;;;;;;;10.45;6.57;;;;;;;;;;4363910;32;20105;-71
2021/07/10 02:57:56;;;;;;;9.18;7.25;;;;;;;;;;4338000;32;20129;-71
2021/07/10 03:00:25;;;;;;;11.38;7.50;;;;;;;;;;4350119;32;20185;-71
2021/07/10 03:02:50;;;;;;;18.80;7.37;;;;;;;;;;4338119;32;20110;-71
2021/07/10 03:05:16;;;;;;;12.10;7.03;;;;;;;;;;4363788;32;20555;-71
2021/07/10 03:07:43;;;;;;;9.57;6.87;;;;;;;;;;4363938;32;20106;-71
2021/07/10 03:10:10;;;;;;;10.27;7.40;;;;;;;;;;4337953;32;20109;-71
2021/07/10 03:12:36;;;;;;;10.40;6.40;;;;;;;;;;4364070;32;20207;-71
2021/07/10 03:15:03;;;;;;;13.95;7.00;;;;;;;;;;4350038;32;20161;-71
2021/07/10 03:17:29;;;;;;;10.68;7.57;;;;;;;;;;4363894;32;20106;-71
2021/07/10 03:19:55;;;;;;;12.00;8.18;;;;;;;;;;4363742;32;20128;-71
2021/07/10 03:22:21;;;;;;;15.88;7.93;;;;;;;;;;4363688;32;20480;-71
2021/07/10 03:24:47;;;;;;;10.48;7.47;;;;;;;;;;4350174;32;20136;-71
2021/07/10 03:27:13;;;;;;;12.60;8.85;;;;;;;;;;4363763;32;20118;-71
2021/07/10 03:29:39;;;;;;;16.87;7.32;;;;;;;;;;4363663;32;20593;-72
2021/07/10 03:32:05;;;;;;;17.20;7.72;;;;;;;;;;4363553;32;20251;-71
2021/07/10 03:34:31;;;;;;;11.95;7.03;;;;;;;;;;4363562;32;20549;-71
2021/07/10 03:36:57;;;;;;;9.02;6.90;;;;;;;;;;4337618;32;20521;-71
2021/07/10 03:39:23;;;;;;;10.57;7.22;;;;;;;;;;4349908;32;20140;-72
2021/07/10 03:41:49;;;;;;;10.13;7.53;;;;;;;;;;4350195;32;20105;-71
2021/07/10 03:44:14;;;;;;;9.45;7.07;;;;;;;;;;4363697;32;20130;-71
2021/07/10 03:46:40;;;;;;;9.20;6.93;;;;;;;;;;4363330;32;20133;-71
2021/07/10 03:49:06;;;;;;;9.88;7.28;;;;;;;;;;4349580;32;20221;-71
2021/07/10 03:51:32;;;;;;;13.73;7.07;;;;;;;;;;4349753;32;20257;-71
2021/07/10 03:53:58;;;;;;;10.68;8.27;;;;;;;;;;4363482;32;20205;-71
2021/07/10 03:56:24;;;;;;;10.10;7.07;;;;;;;;;;4363294;32;20215;-71
2021/07/10 03:58:50;;;;;;;8.80;7.00;;;;;;;;;;4363170;32;20125;-71
2021/07/10 04:01:16;;;;;;;14.50;8.30;;;;;;;;;;4349558;32;20094;-71
2021/07/10 04:03:41;;;;;;;12.37;7.80;;;;;;;;;;4363564;32;20223;-71
2021/07/10 04:06:07;;;;;;;11.57;7.70;;;;;;;;;;4363563;32;20122;-71
2021/07/10 04:08:33;;;;;;;10.05;7.12;;;;;;;;;;4363550;32;20578;-71
2021/07/10 04:10:59;;;;;;;9.52;7.80;;;;;;;;;;4363358;32;20188;-71
2021/07/10 04:13:25;;;;;;;11.65;8.10;;;;;;;;;;4363131;32;20186;-71
2021/07/10 04:15:51;;;;;;;12.05;6.78;;;;;;;;;;4363243;32;20101;-71
2021/07/10 04:18:17;;;;;;;9.05;7.35;;;;;;;;;;4363141;32;20078;-71
2021/07/10 04:20:43;;;;;;;16.10;6.32;;;;;;;;;;4349454;32;20487;-71
2021/07/10 04:23:08;;;;;;;9.40;7.55;;;;;;;;;;4363299;32;20457;-71
2021/07/10 04:25:34;;;;;;;9.85;7.28;;;;;;;;;;4363162;32;20121;-71
2021/07/10 04:28:00;;;;;;;10.70;7.40;;;;;;;;;;4363197;32;20465;-71
2021/07/10 04:30:26;;;;;;;11.75;8.02;;;;;;;;;;4349371;32;20566;-72
2021/07/10 04:32:52;;;;;;;10.40;7.40;;;;;;;;;;4363246;32;20430;-71
2021/07/10 04:35:18;;;;;;;12.07;6.60;;;;;;;;;;4337203;32;20164;-71
2021/07/10 04:37:44;;;;;;;11.82;7.57;;;;;;;;;;4349293;32;20106;-71
2021/07/10 04:40:11;;;;;;;9.35;7.57;;;;;;;;;;4362839;32;20520;-71
2021/07/10 04:42:38;;;;;;;13.23;7.70;;;;;;;;;;4349297;32;20509;-71
2021/07/10 04:45:05;;;;;;;12.37;8.05;;;;;;;;;;4349298;32;20510;-71
2021/07/10 04:47:32;;;;;;;9.65;7.10;;;;;;;;;;4349294;32;20657;-71
2021/07/10 04:49:58;;;;;;;11.45;7.80;;;;;;;;;;4362883;32;20127;-71
2021/07/10 04:52:23;;;;;;;12.50;8.88;;;;;;;;;;4349582;32;20537;-71
2021/07/10 04:54:49;;;;;;;10.10;7.47;;;;;;;;;;4349147;32;20564;-73
2021/07/10 04:57:15;;;;;;;12.40;8.23;;;;;;;;;;4349048;32;20173;-71
2021/07/10 04:59:41;;;;;;;10.38;7.45;;;;;;;;;;4362959;32;20142;-71
2021/07/10 05:02:07;;;;;;;14.63;7.90;;;;;;;;;;4362185;32;20623;-72
2021/07/10 05:04:33;;;;;;;14.05;7.93;;;;;;;;;;4362776;32;20126;-72
2021/07/10 05:06:59;;;;;;;11.65;7.15;;;;;;;;;;4362890;32;20130;-72
2021/07/10 05:09:25;;;;;;;11.05;6.93;;;;;;;;;;4348937;32;20169;-71
2021/07/10 05:11:51;;;;;;;11.05;7.70;;;;;;;;;;4362582;32;20553;-71
2021/07/10 05:14:17;;;;;;;10.23;7.93;;;;;;;;;;4362456;32;20217;-72
2021/07/10 05:16:43;;;;;;;13.07;7.53;;;;;;;;;;4336642;32;20445;-71
2021/07/10 05:19:09;;;;;;;13.15;8.48;;;;;;;;;;4348836;32;20122;-71
2021/07/10 05:21:35;;;;;;;15.13;8.30;;;;;;;;;;4362668;32;20095;-70
2021/07/10 05:24:01;;;;;;;9.13;6.68;;;;;;;;;;4362696;32;20226;-71
2021/07/10 05:26:27;;;;;;;10.73;7.55;;;;;;;;;;4336810;32;20096;-71
2021/07/10 05:28:53;;;;;;;11.35;7.18;;;;;;;;;;4349123;32;20129;-70
2021/07/10 05:31:19;;;;;;;12.75;7.20;;;;;;;;;;4348874;32;20090;-71
2021/07/10 05:33:45;;;;;;;10.55;8.07;;;;;;;;;;4349106;32;20125;-70
2021/07/10 05:36:11;;;;;;;21.05;4.90;;;;;;;;;;4336298;32;20507;-70
2021/07/10 05:38:37;;;;;;;12.98;7.25;;;;;;;;;;4362889;32;20562;-70
2021/07/10 05:41:03;;;;;;;18.27;7.80;;;;;;;;;;4362745;32;20129;-70
2021/07/10 05:43:29;;;;;;;10.00;7.45;;;;;;;;;;4362508;32;20102;-70
2021/07/10 05:45:55;;;;;;;9.15;7.50;;;;;;;;;;4362769;32;20483;-71
2021/07/10 05:48:21;;;;;;;17.45;6.28;;;;;;;;;;4348460;32;20133;-70
2021/07/10 05:50:46;;;;;;;14.05;9.32;;;;;;;;;;4362285;32;20106;-71
2021/07/10 05:53:12;;;;;;;12.27;6.68;;;;;;;;;;4362267;32;20166;-70
2021/07/10 05:55:38;;;;;;;13.57;6.97;;;;;;;;;;4336535;32;20517;-70
2021/07/10 05:58:04;;;;;;;8.93;6.80;;;;;;;;;;4333684;33;20137;-70
2021/07/10 06:00:32;;;;;;;7.97;6.32;;;;;;;;;;4346096;33;20505;-70
2021/07/10 06:02:58;;;;;;;6.22;4.68;;;;;;;;;;4347432;32;20082;-71
2021/07/10 06:05:25;;;;;;;10.98;5.68;;;;;;;;;;4347355;32;20121;-69
2021/07/10 06:07:52;;;;;;;11.80;6.28;;;;;;;;;;4347290;32;20137;-69
2021/07/10 06:10:18;;;;;;;5.55;4.00;;;;;;;;;;4347317;32;20188;-68
2021/07/10 06:12:44;;;;;;;11.90;7.12;;;;;;;;;;4346919;32;20114;-68
2021/07/10 06:15:11;;;;;;;7.85;5.37;;;;;;;;;;4346981;32;20555;-68
2021/07/10 06:17:36;;;;;;;10.30;6.65;;;;;;;;;;4347415;32;20547;-69
2021/07/10 06:20:04;;;;;;;17.23;5.65;;;;;;;;;;4345983;33;20468;-69
2021/07/10 06:22:30;;;;;;;13.32;6.93;;;;;;;;;;4347414;32;20492;-71
2021/07/10 06:24:56;;;;;;;4.78;3.80;;;;;;;;;;4347273;32;20129;-69
2021/07/10 06:27:22;;;;;;;9.38;6.50;;;;;;;;;;4347013;32;20184;-71
2021/07/10 06:29:48;;;;;;;17.05;5.50;;;;;;;;;;4347346;32;20133;-68
2021/07/10 06:32:14;;;;;;;13.88;6.57;;;;;;;;;;4347185;32;20114;-72
2021/07/10 06:34:40;;;;;;;6.45;4.32;;;;;;;;;;4346964;32;20137;-77
2021/07/10 06:37:05;;;;;;;10.57;6.68;;;;;;;;;;4347065;32;20093;-66
2021/07/10 06:39:32;;;;;;;10.85;7.55;;;;;;;;;;4346942;32;20129;-69
2021/07/10 06:41:57;;;;;;;7.00;4.25;;;;;;;;;;4346817;32;20155;-65
2021/07/10 06:44:23;;;;;;;13.70;6.68;;;;;;;;;;4347090;32;20129;-65
2021/07/10 06:46:49;;;;;;;6.47;4.93;;;;;;;;;;4346950;32;20122;-66
2021/07/10 06:49:15;;;;;;;23.85;4.30;;;;;;;;;;4346840;32;20136;-65
2021/07/10 06:51:42;;;;;;;14.35;5.37;;;;;;;;;;4346647;32;20125;-66
2021/07/10 06:54:08;;;;;;;10.27;5.95;;;;;;;;;;4346599;33;20133;-64
2021/07/10 06:56:35;;;;;;;6.87;4.85;;;;;;;;;;4347403;32;20203;-65
2021/07/10 06:59:01;;;;;;;18.35;6.95;;;;;;;;;;4361604;32;20098;-64
2021/07/10 07:01:27;;;;;;;15.88;7.32;;;;;;;;;;4361915;32;20126;-64
2021/07/10 07:03:56;;;;;;;6.68;4.47;;;;;;;;;;4361716;32;20493;-64
2021/07/10 07:06:22;;;;;;;11.60;5.20;;;;;;;;;;4347801;32;20113;-64
2021/07/10 07:08:48;;;;;;;6.00;4.72;;;;;;;;;;4361506;32;20231;-64
2021/07/10 07:11:13;;;;;;;9.48;5.35;;;;;;;;;;4361337;32;20090;-65
2021/07/10 07:13:40;;;;;;;11.30;6.55;;;;;;;;;;4347814;32;20291;-65
2021/07/10 07:16:06;;;;;;;9.38;5.45;;;;;;;;;;4361774;32;20275;-65
2021/07/10 07:18:32;;;;;;;10.43;6.18;;;;;;;;;;4361373;32;20117;-65
2021/07/10 07:20:57;;;;;;;6.85;4.85;;;;;;;;;;4361397;32;20124;-64
2021/07/10 07:23:23;;;;;;;9.98;6.62;;;;;;;;;;4347748;32;20114;-64
2021/07/10 07:25:49;;;;;;;9.63;4.90;;;;;;;;;;4362957;32;20512;-64
2021/07/10 07:28:15;;;;;;;12.02;7.18;;;;;;;;;;4349741;32;20114;-64
2021/07/10 07:30:41;;;;;;;8.25;4.03;;;;;;;;;;4363860;32;20130;-64
2021/07/10 07:33:07;;;;;;;6.43;4.97;;;;;;;;;;4363552;32;20181;-64
2021/07/10 07:35:33;;;;;;;12.23;4.97;;;;;;;;;;4363625;32;20185;-64
2021/07/10 07:37:59;;;;;;;11.80;7.15;;;;;;;;;;4363540;32;20113;-64
2021/07/10 07:40:25;;;;;;;9.27;5.68;;;;;;;;;;4363462;32;20110;-64
2021/07/10 07:42:51;;;;;;;8.38;3.92;;;;;;;;;;4363523;32;20129;-64
2021/07/10 07:45:18;;;;;;;3.67;3.17;;;;;;;;;;4363457;32;20125;-64
2021/07/10 07:47:44;;;;;;;4.28;3.55;;;;;;;;;;4349817;32;20086;-64
2021/07/10 07:50:11;;;;;;;17.42;8.60;;;;;;;;;;4337393;32;20133;-64
2021/07/10 07:52:37;;;;;;;10.15;7.12;;;;;;;;;;4363500;32;20117;-66
2021/07/10 07:55:05;;;;;;;9.10;7.07;;;;;;;;;;4363408;32;20128;-65
2021/07/10 07:57:31;;;;;;;10.68;7.20;;;;;;;;;;4347330;33;20146;-66
2021/07/10 07:59:57;;;;;;;9.40;7.25;;;;;;;;;;4348725;32;20696;-66
2021/07/10 08:02:23;;;;;;;12.05;5.65;;;;;;;;;;4348544;33;20136;-66
2021/07/10 08:04:50;;;;;;;10.57;6.20;;;;;;;;;;4348635;32;20544;-68
2021/07/10 08:07:16;;;;;;;18.62;4.12;;;;;;;;;;4347179;33;20301;-73
2021/07/10 08:09:42;;;;;;;10.13;5.47;;;;;;;;;;4347172;33;20450;-68
2021/07/10 08:12:10;;;;;;;7.30;4.20;;;;;;;;;;4347167;33;20109;-68
2021/07/10 08:14:39;;;;;;;9.68;6.55;;;;;;;;;;4348638;32;20520;-69
2021/07/10 08:17:05;;;;;;;4.57;3.75;;;;;;;;;;4334827;33;20125;-71
2021/07/10 08:19:31;;;;;;;4.75;4.30;;;;;;;;;;4348592;32;20122;-71
2021/07/10 08:21:57;;;;;;;9.25;5.87;;;;;;;;;;4348465;32;20556;-76
2021/07/10 08:24:23;;;;;;;4.97;3.83;;;;;;;;;;4348430;32;20117;-73
2021/07/10 08:26:48;;;;;;;6.53;4.40;;;;;;;;;;4348462;32;20420;-73
2021/07/10 08:29:14;;;;;;;4.05;3.00;;;;;;;;;;4348462;32;20119;-73
2021/07/10 08:31:41;;;;;;;6.45;4.40;;;;;;;;;;4348216;32;20487;-71
2021/07/10 08:34:08;;;;;;;11.02;5.60;;;;;;;;;;4348172;32;20116;-73
2021/07/10 08:36:34;;;;;;;7.82;4.80;;;;;;;;;;4347489;32;20126;-72
2021/07/10 08:39:00;;;;;;;5.97;4.03;;;;;;;;;;4346746;33;20539;-71
2021/07/10 08:41:26;;;;;;;7.47;5.47;;;;;;;;;;4348260;32;20113;-74
2021/07/10 08:43:52;;;;;;;5.05;3.58;;;;;;;;;;4346958;33;20121;-73
2021/07/10 08:46:18;;;;;;;7.75;5.07;;;;;;;;;;4348268;32;20205;-73
2021/07/10 08:48:44;;;;;;;11.40;6.40;;;;;;;;;;4334543;33;20107;-68
2021/07/10 08:51:11;;;;;;;10.75;5.05;;;;;;;;;;4348098;32;20268;-68
2021/07/10 08:53:37;;;;;;;8.05;5.37;;;;;;;;;;4348151;32;20129;-68
2021/07/10 08:56:03;;;;;;;6.80;4.85;;;;;;;;;;4346657;33;20137;-68
2021/07/10 08:58:29;;;;;;;11.15;5.05;;;;;;;;;;4360612;32;20200;-68
2021/07/10 09:00:55;;;;;;;11.02;5.18;;;;;;;;;;4362968;32;20121;-68
2021/07/10 09:03:21;;;;;;;12.35;5.28;;;;;;;;;;4362839;32;20636;-68
2021/07/10 09:05:47;;;;;;;5.30;3.35;;;;;;;;;;4362993;32;20406;-68
2021/07/10 09:08:27;;;;;;;11.32;5.55;;;;;;;;;;4363016;32;20177;-68
2021/07/10 09:11:05;;;;;;;8.68;5.60;;;;;;;;;;4362834;32;20090;-68
2021/07/10 09:13:33;;;;;;;16.90;6.55;;;;;;;;;;4349486;32;20121;-68
2021/07/10 09:16:04;;;;;;;6.93;5.45;;;;;;;;;;4362859;32;20122;-68
2021/07/10 09:18:37;;;;;;;10.70;5.97;;;;;;;;;;4362727;32;20205;-68
2021/07/10 09:21:02;;;;;;;5.82;4.53;;;;;;;;;;4362705;32;20125;-68
2021/07/10 09:23:40;;;;;;;11.55;5.47;;;;;;;;;;4362569;32;20511;-67
2021/07/10 09:26:19;;;;;;;14.05;4.68;;;;;;;;;;4362801;32;20113;-66
2021/07/10 09:29:01;;;;;;;5.35;3.75;;;;;;;;;;4362769;32;20517;-67
2021/07/10 09:31:29;;;;;;;5.30;3.42;;;;;;;;;;4362546;32;20469;-68
2021/07/10 09:34:00;;;;;;;7.47;6.00;;;;;;;;;;4362626;32;20112;-68
2021/07/10 09:36:26;;;;;;;6.43;4.80;;;;;;;;;;4362664;32;20502;-68
2021/07/10 09:38:53;;;;;;;4.82;3.58;;;;;;;;;;4362819;32;20125;-67
2021/07/10 09:41:31;;;;;;;7.82;5.40;;;;;;;;;;4362420;32;20284;-68
2021/07/10 09:44:09;;;;;;;9.13;5.25;;;;;;;;;;4348808;32;20102;-68
2021/07/10 09:46:35;;;;;;;8.57;6.25;;;;;;;;;;4362758;32;20098;-67
2021/07/10 09:49:19;;;;;;;6.80;4.72;;;;;;;;;;4362386;32;20222;-67
2021/07/10 09:51:46;;;;;;;6.87;5.78;;;;;;;;;;4348801;32;20101;-68
2021/07/10 09:54:12;;;;;;;8.52;6.25;;;;;;;;;;4348776;32;20220;-68
2021/07/10 09:56:39;;;;;;;12.20;7.60;;;;;;;;;;4362141;32;20538;-68
2021/07/10 09:59:18;;;;;;;11.30;5.65;;;;;;;;;;4362507;32;20108;-68
2021/07/10 10:01:44;;;;;;;4.78;3.53;;;;;;;;;;4362561;32;20188;-69
2021/07/10 10:04:21;;;;;;;8.07;3.83;;;;;;;;;;4336398;32;20138;-69
2021/07/10 10:06:47;;;;;;;4.60;3.90;;;;;;;;;;4348415;32;20097;-69
2021/07/10 10:09:24;;;;;;;5.93;4.07;;;;;;;;;;4348631;32;20137;-69
2021/07/10 10:11:50;;;;;;;9.55;4.47;;;;;;;;;;4362146;32;20112;-69
2021/07/10 10:14:16;;;;;;;8.73;4.85;;;;;;;;;;4362007;32;20141;-72
2021/07/10 10:16:46;;;;;;;14.63;5.25;;;;;;;;;;4362259;32;20104;-72
2021/07/10 10:19:16;;;;;;;12.32;5.28;;;;;;;;;;4348880;32;20189;-69
2021/07/10 10:21:44;;;;;;;7.28;5.70;;;;;;;;;;4348695;32;20109;-69
2021/07/10 10:24:11;;;;;;;9.85;5.43;;;;;;;;;;4348611;32;20197;-70
2021/07/10 10:26:36;;;;;;;9.38;6.43;;;;;;;;;;4361933;32;20196;-74
2021/07/10 10:29:03;;;;;;;12.82;7.28;;;;;;;;;;4362239;32;20129;-70
2021/07/10 10:31:29;;;;;;;10.93;5.60;;;;;;;;;;4336117;32;20468;-73
2021/07/10 10:33:55;;;;;;;6.32;4.57;;;;;;;;;;4348183;32;20203;-70
2021/07/10 10:36:22;;;;;;;6.22;4.18;;;;;;;;;;4335875;32;20160;-68
2021/07/10 10:38:51;;;;;;;14.95;4.87;;;;;;;;;;4348387;32;20204;-71
2021/07/10 10:41:20;;;;;;;8.50;5.43;;;;;;;;;;4361701;32;20121;-68
2021/07/10 10:43:47;;;;;;;7.87;6.55;;;;;;;;;;4348022;32;20086;-76
2021/07/10 10:46:23;;;;;;;8.10;5.55;;;;;;;;;;4323457;32;20544;-72
2021/07/10 10:48:49;;;;;;;9.38;6.85;;;;;;;;;;4361881;32;20083;-73
2021/07/10 10:51:28;;;;;;;16.27;6.05;;;;;;;;;;4347861;32;20113;-73
2021/07/10 10:54:16;;;;;;;23.50;8.35;;;;;;;;;;4348149;32;20193;-75
2021/07/10 10:56:43;;;;;;;47.47;14.43;;;;;;;;;;4361545;32;20202;-70
2021/07/10 10:59:27;;;;;;;61.05;13.90;;;;;;;;;;4360476;32;20198;-75
2021/07/10 11:01:54;;;;;;;53.50;11.80;;;;;;;;;;4364053;32;20259;-74
2021/07/10 11:04:45;;;;;;;18.30;8.93;;;;;;;;;;4325866;32;20196;-72
2021/07/10 11:07:41;;;;;;;20.85;8.63;;;;;;;;;;4363852;32;20525;-72
2021/07/10 11:10:14;;;;;;;13.95;8.07;;;;;;;;;;4347770;32;20105;-74
2021/07/10 11:12:47;;;;;;;12.70;6.40;;;;;;;;;;4338033;32;20090;-75
2021/07/10 11:15:25;;;;;;;13.85;7.37;;;;;;;;;;4363597;32;20113;-73
2021/07/10 11:17:55;;;;;;;10.18;7.07;;;;;;;;;;4363678;32;20120;-72
2021/07/10 11:20:43;;;;;;;9.38;6.53;;;;;;;;;;4363747;32;20142;-73
2021/07/10 11:23:32;;;;;;;59.88;12.15;;;;;;;;;;4364107;32;20187;-71
2021/07/10 11:26:11;;;;;;;26.02;10.23;;;;;;;;;;4364056;32;20126;-73
2021/07/10 11:28:48;;;;;;;16.83;6.25;;;;;;;;;;4363729;32;20095;-70
2021/07/10 11:31:17;;;;;;;34.75;9.65;;;;;;;;;;4363731;32;20112;-70
2021/07/10 11:34:07;;;;;;;13.80;4.50;;;;;;;;;;4363680;32;20117;-69
2021/07/10 11:36:44;;;;;;;35.92;6.75;;;;;;;;;;4363809;32;20133;-72
2021/07/10 11:39:26;;;;;;;7.80;6.40;;;;;;;;;;4363505;32;20101;-70
2021/07/10 11:41:57;;;;;;;9.20;4.82;;;;;;;;;;4363421;32;20197;-69
2021/07/10 11:44:32;;;;;;;3.95;3.22;;;;;;;;;;4363485;32;20116;-70
2021/07/10 11:46:59;;;;;;;;;;;;;;;;;;4337748;32;20547;-71
2021/07/10 11:49:40;;;;;;;17.80;5.93;;;;;;;;;;4363624;32;20340;-70
2021/07/10 11:52:10;;;;;;;7.45;4.95;;;;;;;;;;4363365;32;20279;-71
2021/07/10 11:54:37;;;;;;;6.22;4.03;;;;;;;;;;4349940;32;20173;-71
2021/07/10 11:57:04;;;;;;;6.30;3.58;;;;;;;;;;4349490;32;20098;-73
2021/07/10 11:59:33;;;;;;;4.82;3.45;;;;;;;;;;4363408;32;20122;-70
2021/07/10 12:02:18;;;;;;;6.50;4.15;;;;;;;;;;4349989;32;20187;-68
2021/07/10 12:05:02;;;;;;;10.85;6.28;;;;;;;;;;4363560;32;20196;-69
2021/07/10 12:07:31;;;;;;;7.45;4.50;;;;;;;;;;4363410;32;20154;-70
2021/07/10 12:09:57;;;;;;;6.35;4.97;;;;;;;;;;4363123;32;20525;-69
2021/07/10 12:12:23;;;;;;;13.38;5.28;;;;;;;;;;4348584;32;20109;-67
2021/07/10 12:14:53;;;;;;;8.05;4.95;;;;;;;;;;4349710;32;20128;-70
2021/07/10 12:17:19;;;;;;;5.22;4.12;;;;;;;;;;4363329;32;20114;-71
2021/07/10 12:19:46;;;;;;;7.03;5.50;;;;;;;;;;4349482;32;20120;-73
2021/07/10 12:22:12;;;;;;;8.20;5.32;;;;;;;;;;4349476;32;20197;-72
2021/07/10 12:24:38;;;;;;;10.55;4.15;;;;;;;;;;4337386;32;20493;-72
2021/07/10 12:27:14;;;;;;;8.68;5.90;;;;;;;;;;4349521;32;20114;-72
2021/07/10 12:29:55;;;;;;;7.87;3.37;;;;;;;;;;4363294;32;20126;-69
2021/07/10 12:32:21;;;;;;;8.82;6.12;;;;;;;;;;4363238;32;20558;-72
2021/07/10 12:34:52;;;;;;;5.47;3.40;;;;;;;;;;4363370;32;20137;-74
2021/07/10 12:37:28;;;;;;;7.82;5.03;;;;;;;;;;4349912;32;20469;-72
2021/07/10 12:40:23;;;;;;;5.57;3.40;;;;;;;;;;4362987;32;20125;-71
2021/07/10 12:42:55;;;;;;;6.62;5.53;;;;;;;;;;4333676;32;20106;-69
2021/07/10 12:45:20;;;;;;;7.07;5.75;;;;;;;;;;4362859;32;20133;-68
2021/07/10 12:47:46;;;;;;;7.20;4.28;;;;;;;;;;4362790;32;20114;-70
2021/07/10 12:50:12;;;;;;;12.15;5.62;;;;;;;;;;4349136;32;20201;-75
2021/07/10 12:52:57;;;;;;;9.15;6.62;;;;;;;;;;4363142;32;20106;-70
2021/07/10 12:55:27;;;;;;;4.90;3.78;;;;;;;;;;4351510;32;20129;-70
2021/07/10 12:57:56;;;;;;;11.30;6.72;;;;;;;;;;4348839;32;20093;-71
2021/07/10 13:00:24;;;;;;;9.50;6.55;;;;;;;;;;4349164;32;20114;-71
2021/07/10 13:03:23;;;;;;;5.15;3.50;;;;;;;;;;4362838;32;20129;-71
2021/07/10 13:05:50;;;;;;;16.25;9.57;;;;;;;;;;4309534;32;20189;-70
2021/07/10 13:08:21;;;;;;;12.10;6.75;;;;;;;;;;4362656;32;20112;-69
2021/07/10 13:10:48;;;;;;;6.53;5.53;;;;;;;;;;4362782;32;20110;-69
2021/07/10 13:13:15;;;;;;;11.60;5.03;;;;;;;;;;4362772;32;20116;-69
2021/07/10 13:15:46;;;;;;;8.13;4.85;;;;;;;;;;4362748;32;20199;-69
2021/07/10 13:18:13;;;;;;;11.20;6.72;;;;;;;;;;4336764;32;20121;-69
2021/07/10 13:20:41;;;;;;;8.57;6.50;;;;;;;;;;4362724;32;20122;-69
2021/07/10 13:23:07;;;;;;;6.82;4.78;;;;;;;;;;4362421;32;20124;-69
2021/07/10 13:25:38;;;;;;;6.75;6.00;;;;;;;;;;4362844;32;20126;-69
2021/07/10 13:28:32;;;;;;;6.65;5.50;;;;;;;;;;4349377;32;20206;-69
2021/07/10 13:31:18;;;;;;;12.25;6.68;;;;;;;;;;4362620;32;20110;-69
2021/07/10 13:34:05;;;;;;;6.12;5.03;;;;;;;;;;4362700;32;20108;-69
2021/07/10 13:36:37;;;;;;;9.73;6.40;;;;;;;;;;4348959;32;20109;-70
2021/07/10 13:39:16;;;;;;;10.55;5.47;;;;;;;;;;4362694;32;20101;-73
2021/07/10 13:41:52;;;;;;;8.52;6.15;;;;;;;;;;4349275;32;20173;-68
2021/07/10 13:44:42;;;;;;;9.02;5.18;;;;;;;;;;4348614;32;20594;-70
2021/07/10 13:47:14;;;;;;;10.23;6.22;;;;;;;;;;4362594;32;20097;-74
2021/07/10 13:49:47;;;;;;;9.90;5.22;;;;;;;;;;4362489;32;20140;-70
2021/07/10 13:52:21;;;;;;;7.93;5.05;;;;;;;;;;4348480;32;20509;-70
2021/07/10 13:54:53;;;;;;;7.37;5.65;;;;;;;;;;4362420;32;20226;-70
2021/07/10 13:57:21;;;;;;;7.18;5.60;;;;;;;;;;4336659;32;20201;-79
2021/07/10 14:00:23;;;;;;;6.05;4.00;;;;;;;;;;4348886;32;20133;-71
2021/07/10 14:02:56;;;;;;;7.85;5.65;;;;;;;;;;4345306;32;20110;-77
2021/07/10 14:05:22;;;;;;;6.97;5.35;;;;;;;;;;4349362;32;20125;-79
2021/07/10 14:07:59;;;;;;;9.35;6.37;;;;;;;;;;4362662;32;20117;-70
2021/07/10 14:10:30;;;;;;;7.32;5.75;;;;;;;;;;4348845;32;20117;-76
2021/07/10 14:12:58;;;;;;;11.45;6.25;;;;;;;;;;4348957;32;20194;-78
2021/07/10 14:15:24;;;;;;;10.30;7.47;;;;;;;;;;4362310;32;20600;-73
2021/07/10 14:17:50;;;;;;;14.15;6.03;;;;;;;;;;4362223;32;20113;-73
2021/07/10 14:20:16;;;;;;;21.00;7.00;;;;;;;;;;4348504;32;20101;-71
2021/07/10 14:22:43;;;;;;;8.68;5.75;;;;;;;;;;4362158;32;20098;-76
2021/07/10 14:25:11;;;;;;;6.80;5.00;;;;;;;;;;4348287;32;20120;-68
2021/07/10 14:27:37;;;;;;;12.25;7.40;;;;;;;;;;4362169;32;20124;-71
2021/07/10 14:30:05;;;;;;;9.25;5.80;;;;;;;;;;4361998;32;20125;-72
2021/07/10 14:32:30;;;;;;;12.80;7.62;;;;;;;;;;4362088;32;20436;-73
2021/07/10 14:34:56;;;;;;;12.88;6.68;;;;;;;;;;4335077;32;20219;-71
2021/07/10 14:37:23;;;;;;;8.50;5.35;;;;;;;;;;4361904;32;20126;-72
2021/07/10 14:39:49;;;;;;;17.05;7.20;;;;;;;;;;4348154;32;20160;-71
2021/07/10 14:42:15;;;;;;;8.95;7.15;;;;;;;;;;4348110;32;20445;-75
2021/07/10 14:44:41;;;;;;;13.00;6.07;;;;;;;;;;4362047;32;20122;-78